Time,TemperatureF,DewpointF,PressureIn,WindDirection,WindDirectionDegrees,WindSpeedMPH,WindSpeedGustMPH,Humidity,HourlyPrecipIn,Conditions,Clouds,dailyrainin,SoftwareType,DateUTC
2013-03-07 00:00:00,30.9,29.1,30.18,ESE,110,0.0,0.0,93,0.00,CLR,,0.00,WeatherDisplay:10.37,2013-03-07 05:00:00,
2013-03-07 00:01:00,30.9,29.1,30.18,ESE,110,0.0,0.0,93,0.00,CLR,,0.00,WeatherDisplay:10.37,2013-03-07 05:01:00,
2013-03-07 00:02:00,30.9,29.1,30.18,ESE,110,0.0,0.0,93,0.00,CLR,,0.00,WeatherDisplay:10.37,2013-03-07 05:02:00,
2013-03-07 00:04:00,30.9,29.1,30.18,ESE,110,0.0,0.0,93,0.00,CLR,,0.00,WeatherDisplay:10.37,2013-03-07 05:04:00,
2013-03-07 00:10:00,30.8,29.0,30.18,ESE,110,0.0,0.0,93,0.00,CLR,,0.00,WeatherDisplay:10.37,2013-03-07 05:10:00,
2013-03-07 00:15:00,30.8,29.3,30.19,ESE,110,0.0,0.0,94,0.00,CLR,,0.00,WeatherDisplay:10.37,2013-03-07 05:15:00,
2013-03-07 00:20:00,30.8,29.3,30.18,ESE,110,0.0,0.0,94,0.00,CLR,,0.00,WeatherDisplay:10.37,2013-03-07 05:20:00,
2013-03-07 00:25:00,30.7,29.2,30.18,ESE,110,0.0,0.0,94,0.00,CLR,,0.00,WeatherDisplay:10.37,2013-03-07 05:25:00,
2013-03-07 00:30:00,30.8,29.3,30.18,ESE,110,0.0,0.0,94,0.00,CLR,,0.00,WeatherDisplay:10.37,2013-03-07 05:30:00,
2013-03-07 00:36:00,30.7,29.2,30.18,ESE,110,0.0,0.0,94,0.00,CLR,,0.00,WeatherDisplay:10.37,2013-03-07 05:36:00,
2013-03-07 00:41:00,30.7,29.2,30.18,ESE,110,0.0,0.0,94,0.00,CLR,,0.00,WeatherDisplay:10.37,2013-03-07 05:41:00,
2013-03-07 00:46:00,30.7,29.2,30.19,ESE,110,0.0,0.0,94,0.00,CLR,,0.00,WeatherDisplay:10.37,2013-03-07 05:46:00,
2013-03-07 00:51:00,30.7,29.2,30.18,ESE,110,0.0,0.0,94,0.00,CLR,,0.00,WeatherDisplay:10.37,2013-03-07 05:51:00,
2013-03-07 00:56:00,30.7,29.2,30.18,ESE,110,0.0,0.0,94,0.00,CLR,,0.00,WeatherDisplay:10.37,2013-03-07 05:56:00,
2013-03-07 01:01:00,30.6,29.1,30.18,ESE,110,0.0,0.0,94,0.00,CLR,,0.00,WeatherDisplay:10.37,2013-03-07 06:01:00,
2013-03-07 01:06:00,30.6,29.1,30.19,ESE,110,0.0,0.0,94,0.00,CLR,,0.00,WeatherDisplay:10.37,2013-03-07 06:06:00,
2013-03-07 01:11:00,30.6,29.1,30.18,ESE,110,0.0,0.0,94,0.00,CLR,,0.00,WeatherDisplay:10.37,2013-03-07 06:11:00,
2013-03-07 01:16:00,30.6,29.1,30.19,ESE,110,0.0,0.0,94,0.00,CLR,,0.00,WeatherDisplay:10.37,2013-03-07 06:16:00,
2013-03-07 01:21:00,30.6,29.1,30.19,ESE,110,0.0,0.0,94,0.00,CLR,,0.00,WeatherDisplay:10.37,2013-03-07 06:21:00,
2013-03-07 01:26:00,30.6,29.1,30.19,ESE,110,0.0,0.0,94,0.00,CLR,,0.00,WeatherDisplay:10.37,2013-03-07 06:26:00,
2013-03-07 01:31:00,30.6,29.1,30.19,ESE,110,0.0,0.0,94,0.00,CLR,,0.00,WeatherDisplay:10.37,2013-03-07 06:31:00,
2013-03-07 01:37:00,30.6,29.1,30.19,ESE,110,0.0,0.0,94,0.00,CLR,,0.00,WeatherDisplay:10.37,2013-03-07 06:37:00,
2013-03-07 01:42:00,30.6,29.1,30.19,ESE,110,0.0,0.0,94,0.00,CLR,,0.00,WeatherDisplay:10.37,2013-03-07 06:42:00,
2013-03-07 01:47:00,30.6,29.1,30.19,ESE,110,0.0,0.0,94,0.00,CLR,,0.00,WeatherDisplay:10.37,2013-03-07 06:47:00,
2013-03-07 01:52:00,30.6,29.1,30.19,ESE,110,0.0,0.0,94,0.00,CLR,,0.00,WeatherDisplay:10.37,2013-03-07 06:52:00,
2013-03-07 01:57:00,30.6,29.3,30.19,ESE,110,0.0,0.0,95,0.00,CLR,,0.00,WeatherDisplay:10.37,2013-03-07 06:57:00,
2013-03-07 02:02:00,30.6,29.3,30.19,ESE,110,0.0,0.0,95,0.00,CLR,,0.00,WeatherDisplay:10.37,2013-03-07 07:02:00,
2013-03-07 02:07:00,30.7,29.4,30.19,ESE,110,0.0,0.0,95,0.00,CLR,,0.00,WeatherDisplay:10.37,2013-03-07 07:07:00,
2013-03-07 02:12:00,30.7,29.4,30.19,ESE,110,0.0,0.0,95,0.00,CLR,,0.00,WeatherDisplay:10.37,2013-03-07 07:12:00,
2013-03-07 02:17:00,30.7,29.4,30.19,ESE,110,0.0,0.0,95,0.00,CLR,,0.00,WeatherDisplay:10.37,2013-03-07 07:17:00,
2013-03-07 02:22:00,30.7,29.4,30.19,ESE,110,0.0,0.0,95,0.00,CLR,,0.00,WeatherDisplay:10.37,2013-03-07 07:22:00,
2013-03-07 02:27:00,30.7,29.4,30.19,ESE,110,0.0,0.0,95,0.00,CLR,,0.00,WeatherDisplay:10.37,2013-03-07 07:27:00,
2013-03-07 02:32:00,30.7,29.4,30.19,ESE,110,0.0,0.0,95,0.00,CLR,,0.00,WeatherDisplay:10.37,2013-03-07 07:32:00,
2013-03-07 02:37:00,30.7,29.4,30.19,ESE,110,0.0,0.0,95,0.00,CLR,,0.00,WeatherDisplay:10.37,2013-03-07 07:37:00,
2013-03-07 02:42:00,30.6,29.3,30.19,ESE,110,0.0,0.0,95,0.00,CLR,,0.00,WeatherDisplay:10.37,2013-03-07 07:42:00,
2013-03-07 02:47:00,30.7,29.4,30.19,ESE,110,0.0,0.0,95,0.00,CLR,,0.00,WeatherDisplay:10.37,2013-03-07 07:47:00,
2013-03-07 02:52:00,30.7,29.4,30.19,ESE,110,0.0,0.0,95,0.00,CLR,,0.00,WeatherDisplay:10.37,2013-03-07 07:52:00,
2013-03-07 02:57:00,30.7,29.4,30.19,ESE,110,0.0,0.0,95,0.00,CLR,,0.00,WeatherDisplay:10.37,2013-03-07 07:57:00,
2013-03-07 03:02:00,30.7,29.4,30.19,ESE,117,0.0,0.0,95,0.00,CLR,,0.00,WeatherDisplay:10.37,2013-03-07 08:02:00,
2013-03-07 03:07:00,30.7,29.4,30.19,ESE,119,0.0,0.0,95,0.00,CLR,,0.00,WeatherDisplay:10.37,2013-03-07 08:07:00,
2013-03-07 03:12:00,30.7,29.4,30.19,SE,126,2.3,2.3,95,0.00,CLR,,0.00,WeatherDisplay:10.37,2013-03-07 08:12:00,
2013-03-07 03:17:00,30.8,29.5,30.19,SE,132,0.0,0.0,95,0.00,CLR,,0.00,WeatherDisplay:10.37,2013-03-07 08:17:00,
2013-03-07 03:22:00,30.8,29.5,30.19,SE,133,2.0,2.0,95,0.00,CLR,,0.00,WeatherDisplay:10.37,2013-03-07 08:22:00,
2013-03-07 03:27:00,30.8,29.5,30.19,SE,133,2.3,2.3,95,0.00,CLR,,0.00,WeatherDisplay:10.37,2013-03-07 08:27:00,
2013-03-07 03:33:00,30.8,29.5,30.19,SSE,167,3.5,3.5,95,0.00,CLR,,0.00,WeatherDisplay:10.37,2013-03-07 08:33:00,
2013-03-07 03:38:00,30.9,29.6,30.20,SSE,168,1.0,0.0,95,0.00,CLR,,0.00,WeatherDisplay:10.37,2013-03-07 08:38:00,
2013-03-07 03:43:00,30.9,29.6,30.20,SSW,192,0.0,0.0,95,0.00,CLR,,0.00,WeatherDisplay:10.37,2013-03-07 08:43:00,
2013-03-07 03:48:00,31.0,29.7,30.20,SSW,192,0.0,0.0,95,0.00,CLR,,0.00,WeatherDisplay:10.37,2013-03-07 08:48:00,
2013-03-07 03:53:00,31.0,29.7,30.20,SSW,192,0.0,0.0,95,0.00,CLR,,0.00,WeatherDisplay:10.37,2013-03-07 08:53:00,
2013-03-07 03:58:00,31.0,29.5,30.20,SW,220,0.0,0.0,94,0.00,CLR,,0.00,WeatherDisplay:10.37,2013-03-07 08:58:00,
2013-03-07 04:03:00,31.0,29.5,30.20,SW,221,1.1,0.0,94,0.00,CLR,,0.00,WeatherDisplay:10.37,2013-03-07 09:03:00,
2013-03-07 04:08:00,31.0,29.5,30.20,SW,224,2.3,2.3,94,0.00,CLR,,0.00,WeatherDisplay:10.37,2013-03-07 09:08:00,
2013-03-07 04:13:00,31.1,29.6,30.20,West,273,3.5,3.5,94,0.00,CLR,,0.00,WeatherDisplay:10.37,2013-03-07 09:13:00,
2013-03-07 04:18:00,31.1,29.3,30.20,WNW,284,0.0,0.0,93,0.00,CLR,,0.00,WeatherDisplay:10.37,2013-03-07 09:18:00,
2013-03-07 04:23:00,31.1,29.3,30.21,West,279,0.0,0.0,93,0.00,CLR,,0.00,WeatherDisplay:10.37,2013-03-07 09:23:00,
2013-03-07 04:28:00,31.1,29.3,30.21,West,279,1.0,0.0,93,0.00,CLR,,0.00,WeatherDisplay:10.37,2013-03-07 09:28:00,
2013-03-07 04:33:00,31.0,28.9,30.21,WNW,292,2.3,2.3,92,0.00,CLR,,0.00,WeatherDisplay:10.37,2013-03-07 09:33:00,
2013-03-07 04:39:00,30.8,28.8,30.21,NW,305,4.0,4.0,92,0.00,CLR,,0.00,WeatherDisplay:10.37,2013-03-07 09:39:00,
2013-03-07 04:44:00,30.7,28.4,30.21,North,355,0.0,0.0,91,0.00,CLR,,0.00,WeatherDisplay:10.37,2013-03-07 09:44:00,
2013-03-07 04:49:00,30.5,27.9,30.22,WSW,240,6.9,6.9,90,0.00,CLR,,0.00,WeatherDisplay:10.37,2013-03-07 09:49:00,
2013-03-07 04:54:00,30.3,27.7,30.22,NW,305,5.0,5.0,90,0.00,CLR,,0.00,WeatherDisplay:10.37,2013-03-07 09:54:00,
2013-03-07 04:59:00,30.1,27.5,30.22,WNW,292,4.0,4.0,90,0.00,CLR,,0.00,WeatherDisplay:10.37,2013-03-07 09:59:00,
2013-03-07 05:04:00,29.9,27.3,30.22,NW,322,4.6,4.6,90,0.00,CLR,,0.00,WeatherDisplay:10.37,2013-03-07 10:04:00,
2013-03-07 05:09:00,29.8,27.0,30.22,WNW,287,0.0,0.0,89,0.00,CLR,,0.00,WeatherDisplay:10.37,2013-03-07 10:09:00,
2013-03-07 05:14:00,29.6,26.8,30.22,West,277,3.5,3.5,89,0.00,CLR,,0.00,WeatherDisplay:10.37,2013-03-07 10:14:00,
2013-03-07 05:19:00,29.4,26.6,30.23,NW,306,8.1,8.1,89,0.00,CLR,,0.00,WeatherDisplay:10.37,2013-03-07 10:19:00,
2013-03-07 05:24:00,29.2,26.4,30.23,West,262,3.5,3.5,89,0.00,CLR,,0.00,WeatherDisplay:10.37,2013-03-07 10:24:00,
2013-03-07 05:29:00,29.1,26.3,30.23,West,269,5.0,5.0,89,0.00,CLR,,0.00,WeatherDisplay:10.37,2013-03-07 10:29:00,
2013-03-07 05:34:00,29.0,26.2,30.23,WNW,298,0.0,0.0,89,0.00,CLR,,0.00,WeatherDisplay:10.37,2013-03-07 10:34:00,
2013-03-07 05:39:00,29.0,26.2,30.23,NNW,330,5.8,5.8,89,0.00,CLR,,0.00,WeatherDisplay:10.37,2013-03-07 10:39:00,
2013-03-07 05:44:00,29.0,26.2,30.24,NW,317,4.0,4.0,89,0.00,CLR,,0.00,WeatherDisplay:10.37,2013-03-07 10:44:00,
2013-03-07 05:49:00,28.9,25.8,30.24,WNW,293,2.3,2.3,88,0.00,CLR,,0.00,WeatherDisplay:10.37,2013-03-07 10:49:00,
2013-03-07 05:54:00,28.8,25.7,30.24,WNW,286,6.0,6.0,88,0.00,CLR,,0.00,WeatherDisplay:10.37,2013-03-07 10:54:00,
2013-03-07 05:59:00,28.8,25.7,30.24,North,360,4.6,4.6,88,0.00,CLR,,0.00,WeatherDisplay:10.37,2013-03-07 10:59:00,
2013-03-07 06:04:00,28.8,25.4,30.24,North,355,2.3,2.3,87,0.00,CLR,,0.00,WeatherDisplay:10.37,2013-03-07 11:04:00,
2013-03-07 06:09:00,28.7,25.3,30.24,NW,315,6.0,6.0,87,0.00,CLR,,0.00,WeatherDisplay:10.37,2013-03-07 11:09:00,
2013-03-07 06:14:00,28.6,25.2,30.25,West,279,3.5,3.5,87,0.00,CLR,,0.00,WeatherDisplay:10.37,2013-03-07 11:14:00,
2013-03-07 06:19:00,28.5,25.1,30.25,NW,309,10.0,10.0,87,0.00,CLR,,0.00,WeatherDisplay:10.37,2013-03-07 11:19:00,
2013-03-07 06:24:00,28.5,24.8,30.24,NW,325,0.0,0.0,86,0.00,CLR,,0.00,WeatherDisplay:10.37,2013-03-07 11:24:00,
2013-03-07 06:29:00,28.5,24.8,30.25,North,360,5.0,5.0,86,0.00,CLR,,0.00,WeatherDisplay:10.37,2013-03-07 11:29:00,
2013-03-07 06:34:00,28.4,24.7,30.25,NNW,336,2.0,2.0,86,0.00,CLR,,0.00,WeatherDisplay:10.37,2013-03-07 11:34:00,
2013-03-07 06:39:00,28.3,24.6,30.25,NNW,330,2.0,2.0,86,0.00,CLR,,0.00,WeatherDisplay:10.37,2013-03-07 11:39:00,
2013-03-07 06:44:00,28.3,24.6,30.25,NNW,331,3.0,3.0,86,0.00,CLR,,0.00,WeatherDisplay:10.37,2013-03-07 11:44:00,
2013-03-07 06:49:00,28.3,24.6,30.25,NW,306,3.5,3.5,86,0.00,CLR,,0.00,WeatherDisplay:10.37,2013-03-07 11:49:00,
2013-03-07 06:55:00,28.3,24.6,30.25,NW,314,2.0,2.0,86,0.00,CLR,,0.00,WeatherDisplay:10.37,2013-03-07 11:55:00,
2013-03-07 07:00:00,28.3,24.6,30.26,NNW,327,0.0,0.0,86,0.00,CLR,,0.00,WeatherDisplay:10.37,2013-03-07 12:00:00,
2013-03-07 07:05:00,28.3,24.4,30.26,NW,314,2.3,0.0,85,0.00,CLR,,0.00,WeatherDisplay:10.37,2013-03-07 12:05:00,
2013-03-07 07:10:00,28.3,24.4,30.26,NNW,337,0.0,0.0,85,0.00,CLR,,0.00,WeatherDisplay:10.37,2013-03-07 12:10:00,
2013-03-07 07:15:00,28.3,24.1,30.26,WNW,294,0.0,0.0,84,0.00,CLR,,0.00,WeatherDisplay:10.37,2013-03-07 12:15:00,
2013-03-07 07:20:00,28.4,24.2,30.26,WNW,298,0.0,0.0,84,0.00,CLR,,0.00,WeatherDisplay:10.37,2013-03-07 12:20:00,
2013-03-07 07:25:00,28.4,23.9,30.27,WNW,292,1.1,0.0,83,0.00,CLR,,0.00,WeatherDisplay:10.37,2013-03-07 12:25:00,
2013-03-07 07:30:00,28.4,23.6,30.27,WNW,288,3.5,3.5,82,0.00,CLR,,0.00,WeatherDisplay:10.37,2013-03-07 12:30:00,
2013-03-07 07:35:00,28.5,23.7,30.27,WNW,290,2.3,2.3,82,0.00,CLR,,0.00,WeatherDisplay:10.37,2013-03-07 12:35:00,
2013-03-07 07:41:00,28.5,23.7,30.27,West,273,2.3,2.3,82,0.00,CLR,,0.00,WeatherDisplay:10.37,2013-03-07 12:41:00,
2013-03-07 07:46:00,28.5,23.7,30.28,West,277,4.6,4.6,82,0.00,CLR,,0.00,WeatherDisplay:10.37,2013-03-07 12:46:00,
2013-03-07 07:51:00,28.5,23.4,30.28,NNW,331,5.0,5.0,81,0.00,CLR,,0.00,WeatherDisplay:10.37,2013-03-07 12:51:00,
2013-03-07 07:56:00,28.4,23.0,30.28,WNW,294,3.5,3.5,80,0.00,CLR,,0.00,WeatherDisplay:10.37,2013-03-07 12:56:00,
2013-03-07 08:01:00,28.4,23.3,30.28,WNW,298,0.0,0.0,81,0.00,CLR,,0.00,WeatherDisplay:10.37,2013-03-07 13:01:00,
2013-03-07 08:07:00,28.4,23.0,30.29,WNW,287,3.5,3.5,80,0.00,CLR,,0.00,WeatherDisplay:10.37,2013-03-07 13:07:00,
2013-03-07 08:12:00,28.4,23.0,30.29,West,279,5.8,5.8,80,0.00,CLR,,0.00,WeatherDisplay:10.37,2013-03-07 13:12:00,
2013-03-07 08:17:00,28.4,23.3,30.29,West,278,3.5,3.5,81,0.00,CLR,,0.00,WeatherDisplay:10.37,2013-03-07 13:17:00,
2013-03-07 08:22:00,28.5,23.4,30.29,WNW,296,0.0,0.0,81,0.00,CLR,,0.00,WeatherDisplay:10.37,2013-03-07 13:22:00,
2013-03-07 08:28:00,28.7,23.6,30.29,WNW,301,3.5,0.0,81,0.00,CLR,,0.00,WeatherDisplay:10.37,2013-03-07 13:28:00,
2013-03-07 08:33:00,28.7,23.6,30.29,WNW,302,5.0,5.0,81,0.00,CLR,,0.00,WeatherDisplay:10.37,2013-03-07 13:33:00,
2013-03-07 08:38:00,28.7,23.3,30.29,NW,305,4.0,4.0,80,0.00,CLR,,0.00,WeatherDisplay:10.37,2013-03-07 13:38:00,
2013-03-07 08:43:00,28.7,23.3,30.29,NW,311,3.5,3.5,80,0.00,CLR,,0.00,WeatherDisplay:10.37,2013-03-07 13:43:00,
2013-03-07 08:49:00,28.7,23.0,30.30,West,278,4.0,4.0,79,0.00,CLR,,0.00,WeatherDisplay:10.37,2013-03-07 13:49:00,
2013-03-07 08:54:00,28.6,22.6,30.30,West,277,6.9,6.9,78,0.00,CLR,,0.00,WeatherDisplay:10.37,2013-03-07 13:54:00,
2013-03-07 08:59:00,28.5,22.5,30.30,WNW,287,2.0,2.0,78,0.00,CLR,,0.00,WeatherDisplay:10.37,2013-03-07 13:59:00,
2013-03-07 09:04:00,28.5,22.5,30.31,West,265,6.0,6.0,78,0.00,CLR,,0.00,WeatherDisplay:10.37,2013-03-07 14:04:00,
2013-03-07 09:09:00,28.4,22.1,30.31,West,274,4.0,4.0,77,0.00,CLR,,0.00,WeatherDisplay:10.37,2013-03-07 14:09:00,
2013-03-07 09:14:00,28.2,21.6,30.31,NW,313,7.0,7.0,76,0.00,CLR,,0.00,WeatherDisplay:10.37,2013-03-07 14:14:00,
2013-03-07 09:19:00,27.6,21.0,30.31,NW,323,11.5,11.5,76,0.00,CLR,,0.00,WeatherDisplay:10.37,2013-03-07 14:19:00,
2013-03-07 09:25:00,27.5,20.9,30.31,NW,314,11.0,11.0,76,0.00,CLR,,0.00,WeatherDisplay:10.37,2013-03-07 14:25:00,
2013-03-07 09:30:00,27.7,21.4,30.31,West,280,11.5,11.5,77,0.00,CLR,,0.00,WeatherDisplay:10.37,2013-03-07 14:30:00,
2013-03-07 09:35:00,27.9,21.3,30.31,WNW,290,5.0,5.0,76,0.00,CLR,,0.00,WeatherDisplay:10.37,2013-03-07 14:35:00,
2013-03-07 09:40:00,27.9,21.0,30.32,NW,325,5.8,5.8,75,0.00,CLR,,0.00,WeatherDisplay:10.37,2013-03-07 14:40:00,
2013-03-07 09:45:00,28.0,21.1,30.32,NW,306,4.6,4.6,75,0.00,CLR,,0.00,WeatherDisplay:10.37,2013-03-07 14:45:00,
2013-03-07 09:51:00,28.2,21.0,30.31,WNW,295,4.0,4.0,74,0.00,CLR,,0.00,WeatherDisplay:10.37,2013-03-07 14:51:00,
2013-03-07 09:56:00,28.2,20.7,30.31,NNE,15,4.6,4.6,73,0.00,CLR,,0.00,WeatherDisplay:10.37,2013-03-07 14:56:00,
2013-03-07 10:01:00,28.1,20.9,30.32,NNE,15,3.5,3.5,74,0.00,CLR,,0.00,WeatherDisplay:10.37,2013-03-07 15:01:00,
2013-03-07 10:06:00,28.3,20.7,30.32,NNW,335,6.9,6.9,73,0.00,CLR,,0.00,WeatherDisplay:10.37,2013-03-07 15:06:00,
2013-03-07 10:11:00,28.4,20.8,30.32,North,350,5.0,5.0,73,0.00,CLR,,0.00,WeatherDisplay:10.37,2013-03-07 15:11:00,
2013-03-07 10:16:00,28.5,20.9,30.32,West,268,2.3,2.3,73,0.00,CLR,,0.00,WeatherDisplay:10.37,2013-03-07 15:16:00,
2013-03-07 10:21:00,28.8,21.2,30.32,North,5,4.6,4.6,73,0.00,CLR,,0.00,WeatherDisplay:10.37,2013-03-07 15:21:00,
2013-03-07 10:26:00,29.0,21.1,30.32,WNW,300,3.5,3.5,72,0.00,CLR,,0.00,WeatherDisplay:10.37,2013-03-07 15:26:00,
2013-03-07 10:31:00,29.1,20.9,30.32,NNW,342,5.8,5.8,71,0.00,CLR,,0.00,WeatherDisplay:10.37,2013-03-07 15:31:00,
2013-03-07 10:36:00,29.1,20.5,30.32,WNW,292,6.0,6.0,70,0.00,CLR,,0.00,WeatherDisplay:10.37,2013-03-07 15:36:00,
2013-03-07 10:41:00,29.3,21.1,30.32,North,360,4.0,4.0,71,0.00,CLR,,0.00,WeatherDisplay:10.37,2013-03-07 15:41:00,
2013-03-07 10:47:00,29.3,20.4,30.32,NNE,18,9.2,9.2,69,0.00,CLR,,0.00,WeatherDisplay:10.37,2013-03-07 15:47:00,
2013-03-07 10:52:00,29.3,20.4,30.32,NW,317,4.6,4.6,69,0.00,CLR,,0.00,WeatherDisplay:10.37,2013-03-07 15:52:00,
2013-03-07 10:57:00,29.6,20.7,30.32,NW,311,11.5,11.5,69,0.00,CLR,,0.00,WeatherDisplay:10.37,2013-03-07 15:57:00,
2013-03-07 11:02:00,29.7,20.8,30.32,WNW,298,5.8,5.8,69,0.00,CLR,,0.00,WeatherDisplay:10.37,2013-03-07 16:02:00,
2013-03-07 11:07:00,30.0,21.1,30.32,NW,324,3.5,3.5,69,0.00,CLR,,0.00,WeatherDisplay:10.37,2013-03-07 16:07:00,
2013-03-07 11:12:00,30.3,20.6,30.32,SW,234,4.0,4.0,67,0.00,CLR,,0.00,WeatherDisplay:10.37,2013-03-07 16:12:00,
2013-03-07 11:17:00,30.2,20.6,30.32,SW,215,6.9,6.9,67,0.00,CLR,,0.00,WeatherDisplay:10.37,2013-03-07 16:17:00,
2013-03-07 11:22:00,30.5,20.5,30.32,WSW,250,7.0,7.0,66,0.00,CLR,,0.00,WeatherDisplay:10.37,2013-03-07 16:22:00,
2013-03-07 11:27:00,31.1,20.7,30.32,NW,319,10.4,10.4,65,0.00,CLR,,0.00,WeatherDisplay:10.37,2013-03-07 16:27:00,
2013-03-07 11:33:00,30.8,20.0,30.32,WSW,250,6.9,6.9,64,0.00,CLR,,0.00,WeatherDisplay:10.37,2013-03-07 16:33:00,
2013-03-07 11:38:00,31.4,21.0,30.32,SSW,203,6.9,6.9,65,0.00,CLR,,0.00,WeatherDisplay:10.37,2013-03-07 16:38:00,
2013-03-07 11:43:00,32.3,21.5,30.32,West,277,14.0,14.0,64,0.00,CLR,,0.00,WeatherDisplay:10.37,2013-03-07 16:43:00,
2013-03-07 11:48:00,31.9,20.3,30.32,West,259,9.2,9.2,62,0.01,RA,,0.01,WeatherDisplay:10.37,2013-03-07 16:48:00,
2013-03-07 11:53:00,31.2,20.1,30.32,NW,314,10.4,10.4,63,0.01,RA,,0.01,WeatherDisplay:10.37,2013-03-07 16:53:00,
2013-03-07 11:58:00,32.1,20.9,30.32,SW,233,12.0,12.0,63,0.01,CLR,,0.01,WeatherDisplay:10.37,2013-03-07 16:58:00,
2013-03-07 12:03:00,32.2,20.6,30.33,SSW,194,11.0,11.0,62,0.01,CLR,,0.01,WeatherDisplay:10.37,2013-03-07 17:03:00,
2013-03-07 12:08:00,32.1,20.9,30.33,North,355,4.0,4.0,63,0.01,CLR,,0.01,WeatherDisplay:10.37,2013-03-07 17:08:00,
2013-03-07 12:13:00,32.1,20.2,30.33,WNW,290,8.1,8.1,61,0.01,CLR,,0.01,WeatherDisplay:10.37,2013-03-07 17:13:00,
2013-03-07 12:18:00,31.9,20.0,30.32,West,277,13.0,13.0,61,0.01,CLR,,0.01,WeatherDisplay:10.37,2013-03-07 17:18:00,
2013-03-07 12:23:00,32.1,20.2,30.33,NNW,330,11.5,11.5,61,0.01,CLR,,0.01,WeatherDisplay:10.37,2013-03-07 17:23:00,
2013-03-07 12:28:00,32.3,20.7,30.32,West,281,9.2,9.2,62,0.01,CLR,,0.01,WeatherDisplay:10.37,2013-03-07 17:28:00,
2013-03-07 12:33:00,32.7,20.3,30.33,NW,311,5.8,5.8,60,0.01,CLR,,0.01,WeatherDisplay:10.37,2013-03-07 17:33:00,
2013-03-07 12:38:00,32.7,20.3,30.32,West,278,4.6,4.6,60,0.01,CLR,,0.01,WeatherDisplay:10.37,2013-03-07 17:38:00,
2013-03-07 12:43:00,33.5,21.5,30.32,WSW,250,10.0,10.0,61,0.01,CLR,,0.01,WeatherDisplay:10.37,2013-03-07 17:43:00,
2013-03-07 12:48:00,33.2,20.0,30.32,NW,317,5.8,5.8,58,0.00,CLR,,0.01,WeatherDisplay:10.37,2013-03-07 17:48:00,
2013-03-07 12:53:00,32.9,20.1,30.32,NW,310,6.9,6.9,59,0.00,CLR,,0.01,WeatherDisplay:10.37,2013-03-07 17:53:00,
2013-03-07 12:58:00,33.0,20.2,30.32,South,178,3.5,3.5,59,0.00,CLR,,0.01,WeatherDisplay:10.37,2013-03-07 17:58:00,
2013-03-07 13:03:00,33.4,20.6,30.32,North,9,4.6,4.6,59,0.00,CLR,,0.01,WeatherDisplay:10.37,2013-03-07 18:03:00,
2013-03-07 13:08:00,33.2,20.4,30.32,West,281,6.9,6.9,59,0.00,CLR,,0.01,WeatherDisplay:10.37,2013-03-07 18:08:00,
2013-03-07 13:13:00,33.0,20.2,30.32,WNW,300,3.5,3.5,59,0.00,CLR,,0.01,WeatherDisplay:10.37,2013-03-07 18:13:00,
2013-03-07 13:18:00,33.3,20.1,30.32,NW,323,3.0,3.0,58,0.00,CLR,,0.01,WeatherDisplay:10.37,2013-03-07 18:18:00,
2013-03-07 13:23:00,33.4,20.6,30.32,West,260,5.0,5.0,59,0.00,CLR,,0.01,WeatherDisplay:10.37,2013-03-07 18:23:00,
2013-03-07 13:28:00,33.5,20.7,30.32,North,355,3.0,3.0,59,0.00,CLR,,0.01,WeatherDisplay:10.37,2013-03-07 18:28:00,
2013-03-07 13:33:00,33.0,20.2,30.32,North,360,4.0,4.0,59,0.00,CLR,,0.01,WeatherDisplay:10.37,2013-03-07 18:33:00,
2013-03-07 13:38:00,32.7,20.7,30.31,WNW,294,3.5,3.5,61,0.00,CLR,,0.01,WeatherDisplay:10.37,2013-03-07 18:38:00,
2013-03-07 13:43:00,32.6,19.8,30.31,WSW,256,4.6,4.6,59,0.00,CLR,,0.01,WeatherDisplay:10.37,2013-03-07 18:43:00,
2013-03-07 13:49:00,32.5,20.1,30.31,SW,220,6.0,6.0,60,0.00,CLR,,0.01,WeatherDisplay:10.37,2013-03-07 18:49:00,
2013-03-07 13:54:00,32.7,20.7,30.31,WSW,244,5.8,5.8,61,0.00,CLR,,0.01,WeatherDisplay:10.37,2013-03-07 18:54:00,
2013-03-07 13:59:00,33.2,20.8,30.31,WNW,285,3.5,3.5,60,0.00,CLR,,0.01,WeatherDisplay:10.37,2013-03-07 18:59:00,
2013-03-07 14:04:00,33.0,20.2,30.31,WNW,293,3.5,3.5,59,0.00,CLR,,0.01,WeatherDisplay:10.37,2013-03-07 19:04:00,
2013-03-07 14:09:00,33.0,20.2,30.31,West,280,1.1,1.1,59,0.00,CLR,,0.01,WeatherDisplay:10.37,2013-03-07 19:09:00,
2013-03-07 14:14:00,33.6,21.2,30.31,WNW,284,4.6,4.6,60,0.00,CLR,,0.01,WeatherDisplay:10.37,2013-03-07 19:14:00,
2013-03-07 14:19:00,33.8,21.0,30.31,NW,305,1.1,1.1,59,0.00,CLR,,0.01,WeatherDisplay:10.37,2013-03-07 19:19:00,
2013-03-07 14:24:00,33.7,20.5,30.31,WSW,244,4.6,4.6,58,0.00,CLR,,0.01,WeatherDisplay:10.37,2013-03-07 19:24:00,
2013-03-07 14:29:00,33.5,20.7,30.31,West,281,1.1,1.1,59,0.00,CLR,,0.01,WeatherDisplay:10.37,2013-03-07 19:29:00,
2013-03-07 14:34:00,33.7,20.5,30.31,West,276,5.8,5.8,58,0.00,CLR,,0.01,WeatherDisplay:10.37,2013-03-07 19:34:00,
2013-03-07 14:39:00,33.5,20.7,30.31,NW,321,6.0,6.0,59,0.00,CLR,,0.01,WeatherDisplay:10.37,2013-03-07 19:39:00,
2013-03-07 14:44:00,33.2,20.4,30.31,NW,310,5.0,5.0,59,0.00,CLR,,0.01,WeatherDisplay:10.37,2013-03-07 19:44:00,
2013-03-07 14:49:00,32.8,20.8,30.31,NW,304,1.1,0.0,61,0.00,CLR,,0.01,WeatherDisplay:10.37,2013-03-07 19:49:00,
2013-03-07 14:54:00,33.3,20.9,30.31,NW,307,1.0,1.0,60,0.00,CLR,,0.01,WeatherDisplay:10.37,2013-03-07 19:54:00,
2013-03-07 14:59:00,34.2,20.9,30.31,NW,304,6.0,6.0,58,0.00,CLR,,0.01,WeatherDisplay:10.37,2013-03-07 19:59:00,
2013-03-07 15:04:00,34.1,21.3,30.31,NW,325,3.0,3.0,59,0.00,CLR,,0.01,WeatherDisplay:10.37,2013-03-07 20:04:00,
2013-03-07 15:09:00,33.8,20.6,30.32,West,281,6.0,6.0,58,0.00,CLR,,0.01,WeatherDisplay:10.37,2013-03-07 20:09:00,
2013-03-07 15:14:00,33.4,20.6,30.32,NW,311,3.5,3.5,59,0.00,CLR,,0.01,WeatherDisplay:10.37,2013-03-07 20:14:00,
2013-03-07 15:19:00,33.6,21.6,30.32,NW,321,5.0,5.0,61,0.00,CLR,,0.01,WeatherDisplay:10.37,2013-03-07 20:19:00,
2013-03-07 15:24:00,33.3,20.5,30.32,West,259,3.5,3.5,59,0.00,CLR,,0.01,WeatherDisplay:10.37,2013-03-07 20:24:00,
2013-03-07 15:29:00,32.9,20.1,30.32,WSW,245,2.3,2.3,59,0.00,CLR,,0.01,WeatherDisplay:10.37,2013-03-07 20:29:00,
2013-03-07 15:34:00,32.6,19.8,30.32,West,275,9.2,9.2,59,0.00,CLR,,0.01,WeatherDisplay:10.37,2013-03-07 20:34:00,
2013-03-07 15:39:00,32.5,20.1,30.32,West,268,0.0,0.0,60,0.00,CLR,,0.01,WeatherDisplay:10.37,2013-03-07 20:39:00,
2013-03-07 15:44:00,32.8,20.8,30.32,West,273,0.0,0.0,61,0.00,CLR,,0.01,WeatherDisplay:10.37,2013-03-07 20:44:00,
2013-03-07 15:49:00,33.1,20.3,30.32,North,350,6.0,6.0,59,0.00,CLR,,0.01,WeatherDisplay:10.37,2013-03-07 20:49:00,
2013-03-07 15:54:00,33.2,20.4,30.32,North,350,1.1,1.1,59,0.00,CLR,,0.01,WeatherDisplay:10.37,2013-03-07 20:54:00,
2013-03-07 15:59:00,33.4,21.0,30.32,NW,322,3.5,3.5,60,0.00,CLR,,0.01,WeatherDisplay:10.37,2013-03-07 20:59:00,
2013-03-07 16:04:00,33.5,20.3,30.33,NW,317,4.6,4.6,58,0.00,CLR,,0.01,WeatherDisplay:10.37,2013-03-07 21:04:00,
2013-03-07 16:09:00,33.0,19.8,30.33,NW,311,4.6,4.6,58,0.00,CLR,,0.01,WeatherDisplay:10.37,2013-03-07 21:09:00,
2013-03-07 16:14:00,33.1,19.9,30.33,NW,313,4.0,4.0,58,0.00,CLR,,0.01,WeatherDisplay:10.37,2013-03-07 21:14:00,
2013-03-07 16:19:00,33.4,20.6,30.32,North,9,2.3,0.0,59,0.00,CLR,,0.01,WeatherDisplay:10.37,2013-03-07 21:19:00,
2013-03-07 16:24:00,33.9,20.7,30.32,NNE,24,3.5,3.5,58,0.00,CLR,,0.01,WeatherDisplay:10.37,2013-03-07 21:24:00,
2013-03-07 16:29:00,34.4,21.5,30.33,WSW,257,4.0,4.0,59,0.00,CLR,,0.01,WeatherDisplay:10.37,2013-03-07 21:29:00,
2013-03-07 16:34:00,34.7,21.0,30.32,NNW,332,3.5,3.5,57,0.00,CLR,,0.01,WeatherDisplay:10.37,2013-03-07 21:34:00,
2013-03-07 16:39:00,34.4,20.3,30.33,West,267,3.5,3.5,56,0.00,CLR,,0.01,WeatherDisplay:10.37,2013-03-07 21:39:00,
2013-03-07 16:44:00,33.9,19.8,30.33,WSW,250,4.6,4.6,56,0.00,CLR,,0.01,WeatherDisplay:10.37,2013-03-07 21:44:00,
2013-03-07 16:49:00,33.9,20.3,30.33,NW,317,1.1,0.0,57,0.00,CLR,,0.01,WeatherDisplay:10.37,2013-03-07 21:49:00,
2013-03-07 16:54:00,34.3,20.6,30.33,NW,323,3.0,3.0,57,0.00,CLR,,0.01,WeatherDisplay:10.37,2013-03-07 21:54:00,
2013-03-07 16:59:00,34.0,20.3,30.32,WNW,288,4.6,4.6,57,0.00,CLR,,0.01,WeatherDisplay:10.37,2013-03-07 21:59:00,
2013-03-07 17:04:00,33.7,20.1,30.32,NW,309,6.9,6.9,57,0.00,CLR,,0.01,WeatherDisplay:10.37,2013-03-07 22:04:00,
2013-03-07 17:09:00,33.9,20.7,30.32,WNW,296,1.1,0.0,58,0.00,CLR,,0.01,WeatherDisplay:10.37,2013-03-07 22:09:00,
2013-03-07 17:14:00,33.8,20.2,30.32,NW,315,3.5,3.5,57,0.00,CLR,,0.01,WeatherDisplay:10.37,2013-03-07 22:14:00,
2013-03-07 17:19:00,33.7,20.5,30.33,NW,311,1.1,0.0,58,0.00,CLR,,0.01,WeatherDisplay:10.37,2013-03-07 22:19:00,
2013-03-07 17:24:00,33.6,20.4,30.33,NNW,331,6.9,6.9,58,0.00,CLR,,0.01,WeatherDisplay:10.37,2013-03-07 22:24:00,
2013-03-07 17:29:00,33.4,20.6,30.33,WNW,282,0.0,0.0,59,0.00,CLR,,0.01,WeatherDisplay:10.37,2013-03-07 22:29:00,
2013-03-07 17:34:00,33.6,20.8,30.33,WNW,284,1.1,0.0,59,0.00,CLR,,0.01,WeatherDisplay:10.37,2013-03-07 22:34:00,
2013-03-07 17:39:00,33.4,19.8,30.33,NW,310,5.8,5.8,57,0.00,CLR,,0.01,WeatherDisplay:10.37,2013-03-07 22:39:00,
2013-03-07 17:44:00,32.9,20.1,30.34,NW,311,1.1,1.1,59,0.00,CLR,,0.01,WeatherDisplay:10.37,2013-03-07 22:44:00,
2013-03-07 17:49:00,32.6,19.8,30.34,NW,306,6.9,6.9,59,0.00,CLR,,0.01,WeatherDisplay:10.37,2013-03-07 22:49:00,
2013-03-07 17:54:00,32.2,19.9,30.34,West,279,3.5,3.5,60,0.00,CLR,,0.01,WeatherDisplay:10.37,2013-03-07 22:54:00,
2013-03-07 17:59:00,32.0,19.7,30.34,WNW,287,4.6,4.6,60,0.00,CLR,,0.01,WeatherDisplay:10.37,2013-03-07 22:59:00,
2013-03-07 18:04:00,31.9,20.3,30.34,WNW,287,0.0,0.0,62,0.00,CLR,,0.01,WeatherDisplay:10.37,2013-03-07 23:04:00,
2013-03-07 18:09:00,31.5,19.6,30.35,NNW,345,3.5,3.5,61,0.00,CLR,,0.01,WeatherDisplay:10.37,2013-03-07 23:09:00,
2013-03-07 18:14:00,31.4,19.1,30.35,NNW,346,0.0,0.0,60,0.00,CLR,,0.01,WeatherDisplay:10.37,2013-03-07 23:14:00,
2013-03-07 18:19:00,31.2,19.7,30.35,NNW,346,0.0,0.0,62,0.00,CLR,,0.01,WeatherDisplay:10.37,2013-03-07 23:19:00,
2013-03-07 18:24:00,31.0,19.5,30.35,NNW,346,0.0,0.0,62,0.00,CLR,,0.01,WeatherDisplay:10.37,2013-03-07 23:24:00,
2013-03-07 18:29:00,30.8,19.7,30.35,NNW,346,0.0,0.0,63,0.00,CLR,,0.01,WeatherDisplay:10.37,2013-03-07 23:29:00,
2013-03-07 18:34:00,30.5,19.4,30.35,NNW,346,0.0,0.0,63,0.00,CLR,,0.01,WeatherDisplay:10.37,2013-03-07 23:34:00,
2013-03-07 18:39:00,30.1,19.0,30.35,NNW,346,0.0,0.0,63,0.00,CLR,,0.01,WeatherDisplay:10.37,2013-03-07 23:39:00,
2013-03-07 18:44:00,29.8,18.7,30.36,NNW,346,0.0,0.0,63,0.00,CLR,,0.01,WeatherDisplay:10.37,2013-03-07 23:44:00,
2013-03-07 18:49:00,29.5,19.2,30.36,NNW,346,0.0,0.0,65,0.00,CLR,,0.01,WeatherDisplay:10.37,2013-03-07 23:49:00,
2013-03-07 18:54:00,29.2,18.9,30.36,NNW,346,0.0,0.0,65,0.00,CLR,,0.01,WeatherDisplay:10.37,2013-03-07 23:54:00,
2013-03-07 18:59:00,28.9,19.0,30.36,NNW,346,0.0,0.0,66,0.00,CLR,,0.01,WeatherDisplay:10.37,2013-03-07 23:59:00,
2013-03-07 19:04:00,28.8,18.9,30.36,NNW,346,0.0,0.0,66,0.00,CLR,,0.01,WeatherDisplay:10.37,2013-03-08 00:04:00,
2013-03-07 19:09:00,28.8,18.9,30.36,NNW,346,0.0,0.0,66,0.00,CLR,,0.01,WeatherDisplay:10.37,2013-03-08 00:09:00,
2013-03-07 19:14:00,28.7,18.8,30.37,NNW,346,1.1,1.1,66,0.00,CLR,,0.01,WeatherDisplay:10.37,2013-03-08 00:14:00,
2013-03-07 19:19:00,28.5,18.6,30.37,NNW,346,0.0,0.0,66,0.00,CLR,,0.01,WeatherDisplay:10.37,2013-03-08 00:19:00,
2013-03-07 19:24:00,28.3,18.4,30.37,NNW,346,0.0,0.0,66,0.00,CLR,,0.01,WeatherDisplay:10.37,2013-03-08 00:24:00,
2013-03-07 19:29:00,28.2,18.6,30.37,NNW,344,0.0,0.0,67,0.00,CLR,,0.01,WeatherDisplay:10.37,2013-03-08 00:29:00,
2013-03-07 19:34:00,28.2,18.6,30.37,NNW,344,0.0,0.0,67,0.00,CLR,,0.01,WeatherDisplay:10.37,2013-03-08 00:34:00,
2013-03-07 19:39:00,28.0,18.5,30.37,NNW,344,0.0,0.0,67,0.00,CLR,,0.01,WeatherDisplay:10.37,2013-03-08 00:39:00,
2013-03-07 19:44:00,27.9,18.7,30.37,NNW,344,0.0,0.0,68,0.00,CLR,,0.01,WeatherDisplay:10.37,2013-03-08 00:44:00,
2013-03-07 19:49:00,27.6,18.4,30.37,NNW,344,0.0,0.0,68,0.00,CLR,,0.01,WeatherDisplay:10.37,2013-03-08 00:49:00,
2013-03-07 19:55:00,27.4,18.2,30.37,NNW,344,0.0,0.0,68,0.00,CLR,,0.01,WeatherDisplay:10.37,2013-03-08 00:55:00,
2013-03-07 20:00:00,27.3,18.5,30.38,NNW,344,0.0,0.0,69,0.00,CLR,,0.01,WeatherDisplay:10.37,2013-03-08 01:00:00,
2013-03-07 20:05:00,27.3,18.5,30.38,NNW,344,0.0,0.0,69,0.00,CLR,,0.01,WeatherDisplay:10.37,2013-03-08 01:05:00,
2013-03-07 20:10:00,27.3,18.5,30.38,NNW,344,1.1,1.1,69,0.00,CLR,,0.01,WeatherDisplay:10.37,2013-03-08 01:10:00,
2013-03-07 20:15:00,27.3,18.5,30.37,NNW,344,0.0,0.0,69,0.00,CLR,,0.01,WeatherDisplay:10.37,2013-03-08 01:15:00,
2013-03-07 20:20:00,27.2,18.7,30.38,NNW,344,1.0,0.0,70,0.00,CLR,,0.01,WeatherDisplay:10.37,2013-03-08 01:20:00,
2013-03-07 20:25:00,27.2,18.7,30.38,NNW,344,0.0,0.0,70,0.00,CLR,,0.01,WeatherDisplay:10.37,2013-03-08 01:25:00,
2013-03-07 20:30:00,27.1,18.6,30.38,NNW,344,0.0,0.0,70,0.00,CLR,,0.01,WeatherDisplay:10.37,2013-03-08 01:30:00,
2013-03-07 20:35:00,27.1,18.6,30.38,NNW,344,1.1,0.0,70,0.00,CLR,,0.01,WeatherDisplay:10.37,2013-03-08 01:35:00,
2013-03-07 20:40:00,27.0,18.5,30.38,NNW,344,0.0,0.0,70,0.00,CLR,,0.01,WeatherDisplay:10.37,2013-03-08 01:40:00,
2013-03-07 20:45:00,27.0,18.5,30.38,NNW,344,2.3,2.3,70,0.00,CLR,,0.01,WeatherDisplay:10.37,2013-03-08 01:45:00,
2013-03-07 20:50:00,26.9,18.4,30.38,NNW,344,0.0,0.0,70,0.00,CLR,,0.01,WeatherDisplay:10.37,2013-03-08 01:50:00,
2013-03-07 20:55:00,26.9,18.7,30.38,NNW,344,0.0,0.0,71,0.00,CLR,,0.01,WeatherDisplay:10.37,2013-03-08 01:55:00,
2013-03-07 21:00:00,26.9,18.4,30.38,NNW,344,3.5,0.0,70,0.00,CLR,,0.01,WeatherDisplay:10.37,2013-03-08 02:00:00,
2013-03-07 21:05:00,26.8,18.3,30.38,NNW,344,2.0,2.0,70,0.00,CLR,,0.01,WeatherDisplay:10.37,2013-03-08 02:05:00,
2013-03-07 21:10:00,26.7,18.2,30.39,NNW,344,2.3,2.3,70,0.00,CLR,,0.01,WeatherDisplay:10.37,2013-03-08 02:10:00,
2013-03-07 21:15:00,26.7,18.2,30.38,NNW,344,0.0,0.0,70,0.00,CLR,,0.01,WeatherDisplay:10.37,2013-03-08 02:15:00,
2013-03-07 21:20:00,26.9,18.4,30.38,NNW,344,0.0,0.0,70,0.00,CLR,,0.01,WeatherDisplay:10.37,2013-03-08 02:20:00,
2013-03-07 21:25:00,26.9,18.1,30.38,NNW,344,3.0,3.0,69,0.00,CLR,,0.01,WeatherDisplay:10.37,2013-03-08 02:25:00,
2013-03-07 21:30:00,26.9,18.1,30.38,NNW,344,2.3,2.3,69,0.00,CLR,,0.01,WeatherDisplay:10.37,2013-03-08 02:30:00,
2013-03-07 21:35:00,26.7,18.2,30.39,NNW,343,2.3,0.0,70,0.00,CLR,,0.01,WeatherDisplay:10.37,2013-03-08 02:35:00,
2013-03-07 21:40:00,26.6,18.1,30.39,NNW,343,0.0,0.0,70,0.00,CLR,,0.01,WeatherDisplay:10.37,2013-03-08 02:40:00,
2013-03-07 21:45:00,26.4,17.9,30.39,NNW,336,0.0,0.0,70,0.00,CLR,,0.01,WeatherDisplay:10.37,2013-03-08 02:45:00,
2013-03-07 21:50:00,26.2,17.7,30.38,NNW,333,3.5,3.5,70,0.00,CLR,,0.01,WeatherDisplay:10.37,2013-03-08 02:50:00,
2013-03-07 21:55:00,26.2,18.1,30.38,NNW,333,0.0,0.0,71,0.00,CLR,,0.01,WeatherDisplay:10.37,2013-03-08 02:55:00,
2013-03-07 22:00:00,25.9,17.8,30.39,NNW,333,2.3,2.3,71,0.00,CLR,,0.01,WeatherDisplay:10.37,2013-03-08 03:00:00,
2013-03-07 22:05:00,25.8,17.7,30.38,NNW,333,0.0,0.0,71,0.00,CLR,,0.01,WeatherDisplay:10.37,2013-03-08 03:05:00,
2013-03-07 22:10:00,25.6,17.5,30.39,NNW,333,0.0,0.0,71,0.00,CLR,,0.01,WeatherDisplay:10.37,2013-03-08 03:10:00,
2013-03-07 22:15:00,25.4,17.6,30.39,NNW,333,0.0,0.0,72,0.00,CLR,,0.01,WeatherDisplay:10.37,2013-03-08 03:15:00,
2013-03-07 22:20:00,25.2,17.4,30.39,NNW,333,0.0,0.0,72,0.00,CLR,,0.01,WeatherDisplay:10.37,2013-03-08 03:20:00,
2013-03-07 22:25:00,25.1,17.7,30.39,NNW,333,0.0,0.0,73,0.00,CLR,,0.01,WeatherDisplay:10.37,2013-03-08 03:25:00,
2013-03-07 22:30:00,24.8,17.4,30.39,NNW,333,0.0,0.0,73,0.00,CLR,,0.01,WeatherDisplay:10.37,2013-03-08 03:30:00,
2013-03-07 22:35:00,24.5,17.1,30.39,NNW,333,0.0,0.0,73,0.00,CLR,,0.01,WeatherDisplay:10.37,2013-03-08 03:35:00,
2013-03-07 22:40:00,24.3,17.2,30.38,NNW,333,0.0,0.0,74,0.00,CLR,,0.01,WeatherDisplay:10.37,2013-03-08 03:40:00,
2013-03-07 22:45:00,24.1,17.3,30.38,NNW,333,0.0,0.0,75,0.00,CLR,,0.01,WeatherDisplay:10.37,2013-03-08 03:45:00,
2013-03-07 22:50:00,23.9,17.1,30.39,NNW,333,0.0,0.0,75,0.00,CLR,,0.01,WeatherDisplay:10.37,2013-03-08 03:50:00,
2013-03-07 22:55:00,23.8,17.3,30.39,NNW,333,0.0,0.0,76,0.00,CLR,,0.01,WeatherDisplay:10.37,2013-03-08 03:55:00,
2013-03-07 23:00:00,23.6,17.1,30.39,NNW,333,0.0,0.0,76,0.00,CLR,,0.01,WeatherDisplay:10.37,2013-03-08 04:00:00,
2013-03-07 23:05:00,23.5,17.0,30.39,NNW,333,1.1,0.0,76,0.00,CLR,,0.01,WeatherDisplay:10.37,2013-03-08 04:05:00,
2013-03-07 23:10:00,23.6,17.1,30.39,NNW,333,0.0,0.0,76,0.00,CLR,,0.01,WeatherDisplay:10.37,2013-03-08 04:10:00,
2013-03-07 23:16:00,23.5,17.0,30.39,NNW,333,0.0,0.0,76,0.00,CLR,,0.01,WeatherDisplay:10.37,2013-03-08 04:16:00,
2013-03-07 23:22:00,23.3,17.2,30.39,NNW,333,0.0,0.0,77,0.00,CLR,,0.01,WeatherDisplay:10.37,2013-03-08 04:22:00,
2013-03-07 23:27:00,23.2,17.7,30.39,NNW,333,0.0,0.0,79,0.00,CLR,,0.01,WeatherDisplay:10.37,2013-03-08 04:27:00,
2013-03-07 23:32:00,23.1,17.6,30.39,NNW,333,0.0,0.0,79,0.00,CLR,,0.01,WeatherDisplay:10.37,2013-03-08 04:32:00,
2013-03-07 23:37:00,22.9,17.4,30.40,NNW,333,0.0,0.0,79,0.00,CLR,,0.01,WeatherDisplay:10.37,2013-03-08 04:37:00,
2013-03-07 23:42:00,22.7,17.2,30.40,NNW,333,0.0,0.0,79,0.00,CLR,,0.01,WeatherDisplay:10.37,2013-03-08 04:42:00,
2013-03-07 23:47:00,22.6,17.4,30.40,NNW,333,0.0,0.0,80,0.00,CLR,,0.01,WeatherDisplay:10.37,2013-03-08 04:47:00,
2013-03-07 23:52:00,22.4,17.2,30.39,NNW,333,0.0,0.0,80,0.00,CLR,,0.01,WeatherDisplay:10.37,2013-03-08 04:52:00,
2013-03-07 23:57:00,22.2,17.0,30.40,NNW,333,0.0,0.0,80,0.00,CLR,,0.01,WeatherDisplay:10.37,2013-03-08 04:57:00,